sensor_id;sensor_type;location;lat;lon;timestamp;P1;durP1;ratioP1;P2;durP2;ratioP2
77206;SDS011;66190;50.708;7.906;2023-07-20T00:00:50;9.68;;;3.70;;
77206;SDS011;66190;50.708;7.906;2023-07-20T00:03:18;8.20;;;3.73;;
77206;SDS011;66190;50.708;7.906;2023-07-20T00:05:50;8.88;;;3.78;;
77206;SDS011;66190;50.708;7.906;2023-07-20T00:08:16;9.18;;;3.88;;
77206;SDS011;66190;50.708;7.906;2023-07-20T00:10:42;7.83;;;3.40;;
77206;SDS011;66190;50.708;7.906;2023-07-20T00:13:08;8.27;;;3.70;;
77206;SDS011;66190;50.708;7.906;2023-07-20T00:15:34;7.63;;;3.60;;
77206;SDS011;66190;50.708;7.906;2023-07-20T00:17:59;8.17;;;3.40;;
77206;SDS011;66190;50.708;7.906;2023-07-20T00:20:24;8.63;;;3.87;;
77206;SDS011;66190;50.708;7.906;2023-07-20T00:22:50;12.38;;;3.70;;
77206;SDS011;66190;50.708;7.906;2023-07-20T00:25:16;8.63;;;3.50;;
77206;SDS011;66190;50.708;7.906;2023-07-20T00:27:42;7.78;;;3.80;;
77206;SDS011;66190;50.708;7.906;2023-07-20T00:30:07;9.93;;;3.63;;
77206;SDS011;66190;50.708;7.906;2023-07-20T00:32:33;9.75;;;3.58;;
77206;SDS011;66190;50.708;7.906;2023-07-20T00:34:59;8.07;;;3.87;;
77206;SDS011;66190;50.708;7.906;2023-07-20T00:37:24;8.73;;;3.70;;
77206;SDS011;66190;50.708;7.906;2023-07-20T00:39:50;10.13;;;4.27;;
77206;SDS011;66190;50.708;7.906;2023-07-20T00:42:16;9.73;;;4.22;;
77206;SDS011;66190;50.708;7.906;2023-07-20T00:44:41;8.23;;;3.97;;
77206;SDS011;66190;50.708;7.906;2023-07-20T00:47:06;9.20;;;4.03;;
77206;SDS011;66190;50.708;7.906;2023-07-20T00:49:32;10.35;;;4.45;;
77206;SDS011;66190;50.708;7.906;2023-07-20T00:51:58;11.63;;;4.40;;
77206;SDS011;66190;50.708;7.906;2023-07-20T00:54:26;11.95;;;4.57;;
77206;SDS011;66190;50.708;7.906;2023-07-20T00:56:53;8.85;;;4.45;;
77206;SDS011;66190;50.708;7.906;2023-07-20T00:59:19;9.77;;;4.37;;
77206;SDS011;66190;50.708;7.906;2023-07-20T01:01:45;11.02;;;4.35;;
77206;SDS011;66190;50.708;7.906;2023-07-20T01:04:11;10.67;;;4.47;;
77206;SDS011;66190;50.708;7.906;2023-07-20T01:06:41;9.23;;;3.85;;
77206;SDS011;66190;50.708;7.906;2023-07-20T01:09:13;11.88;;;4.25;;
77206;SDS011;66190;50.708;7.906;2023-07-20T01:14:18;8.63;;;3.90;;
77206;SDS011;66190;50.708;7.906;2023-07-20T01:16:45;10.10;;;4.20;;
77206;SDS011;66190;50.708;7.906;2023-07-20T01:19:10;9.38;;;4.32;;
77206;SDS011;66190;50.708;7.906;2023-07-20T01:21:40;9.40;;;3.90;;
77206;SDS011;66190;50.708;7.906;2023-07-20T01:27:18;11.50;;;4.32;;
77206;SDS011;66190;50.708;7.906;2023-07-20T01:30:03;10.07;;;4.30;;
77206;SDS011;66190;50.708;7.906;2023-07-20T01:32:52;10.00;;;4.40;;
77206;SDS011;66190;50.708;7.906;2023-07-20T01:35:21;8.10;;;4.15;;
77206;SDS011;66190;50.708;7.906;2023-07-20T01:37:52;12.35;;;4.20;;
77206;SDS011;66190;50.708;7.906;2023-07-20T01:40:19;8.07;;;4.00;;
77206;SDS011;66190;50.708;7.906;2023-07-20T01:42:47;10.00;;;4.17;;
77206;SDS011;66190;50.708;7.906;2023-07-20T01:45:13;9.35;;;4.13;;
77206;SDS011;66190;50.708;7.906;2023-07-20T01:47:38;8.87;;;4.03;;
77206;SDS011;66190;50.708;7.906;2023-07-20T01:50:04;11.63;;;4.73;;
77206;SDS011;66190;50.708;7.906;2023-07-20T01:52:30;9.23;;;4.85;;
77206;SDS011;66190;50.708;7.906;2023-07-20T01:54:55;8.80;;;4.13;;
77206;SDS011;66190;50.708;7.906;2023-07-20T01:57:21;8.13;;;3.83;;
77206;SDS011;66190;50.708;7.906;2023-07-20T01:59:46;11.27;;;3.97;;
77206;SDS011;66190;50.708;7.906;2023-07-20T02:02:11;10.03;;;3.87;;
77206;SDS011;66190;50.708;7.906;2023-07-20T02:04:37;10.83;;;4.47;;
77206;SDS011;66190;50.708;7.906;2023-07-20T02:07:02;10.53;;;3.90;;
77206;SDS011;66190;50.708;7.906;2023-07-20T02:09:28;10.52;;;3.75;;
77206;SDS011;66190;50.708;7.906;2023-07-20T02:11:53;11.40;;;4.27;;
77206;SDS011;66190;50.708;7.906;2023-07-20T02:14:18;10.57;;;4.30;;
77206;SDS011;66190;50.708;7.906;2023-07-20T02:16:44;10.23;;;4.37;;
77206;SDS011;66190;50.708;7.906;2023-07-20T02:19:09;10.30;;;4.13;;
77206;SDS011;66190;50.708;7.906;2023-07-20T02:21:35;11.18;;;4.53;;
77206;SDS011;66190;50.708;7.906;2023-07-20T02:24:01;10.43;;;4.90;;
77206;SDS011;66190;50.708;7.906;2023-07-20T02:26:26;12.90;;;4.97;;
77206;SDS011;66190;50.708;7.906;2023-07-20T02:28:52;10.65;;;4.75;;
77206;SDS011;66190;50.708;7.906;2023-07-20T02:31:17;9.13;;;4.07;;
77206;SDS011;66190;50.708;7.906;2023-07-20T02:33:42;11.00;;;5.23;;
77206;SDS011;66190;50.708;7.906;2023-07-20T02:36:08;12.03;;;5.00;;
77206;SDS011;66190;50.708;7.906;2023-07-20T02:38:33;11.87;;;4.77;;
77206;SDS011;66190;50.708;7.906;2023-07-20T02:40:58;11.27;;;5.27;;
77206;SDS011;66190;50.708;7.906;2023-07-20T02:43:24;13.07;;;5.17;;
77206;SDS011;66190;50.708;7.906;2023-07-20T02:45:50;9.80;;;5.20;;
77206;SDS011;66190;50.708;7.906;2023-07-20T02:48:15;10.90;;;5.13;;
77206;SDS011;66190;50.708;7.906;2023-07-20T02:50:41;11.33;;;4.93;;
77206;SDS011;66190;50.708;7.906;2023-07-20T02:53:06;12.90;;;5.10;;
77206;SDS011;66190;50.708;7.906;2023-07-20T02:55:31;9.77;;;4.67;;
77206;SDS011;66190;50.708;7.906;2023-07-20T02:57:57;11.67;;;4.97;;
77206;SDS011;66190;50.708;7.906;2023-07-20T03:00:22;11.83;;;5.47;;
77206;SDS011;66190;50.708;7.906;2023-07-20T03:02:48;12.83;;;5.20;;
77206;SDS011;66190;50.708;7.906;2023-07-20T03:05:14;11.27;;;5.03;;
77206;SDS011;66190;50.708;7.906;2023-07-20T03:07:41;12.18;;;5.40;;
77206;SDS011;66190;50.708;7.906;2023-07-20T03:10:08;12.32;;;5.38;;
77206;SDS011;66190;50.708;7.906;2023-07-20T03:12:34;11.52;;;5.22;;
77206;SDS011;66190;50.708;7.906;2023-07-20T03:15:01;11.17;;;4.83;;
77206;SDS011;66190;50.708;7.906;2023-07-20T03:17:27;11.52;;;5.47;;
77206;SDS011;66190;50.708;7.906;2023-07-20T03:19:52;10.50;;;4.43;;
77206;SDS011;66190;50.708;7.906;2023-07-20T03:22:18;11.23;;;4.73;;
77206;SDS011;66190;50.708;7.906;2023-07-20T03:24:43;12.95;;;5.13;;
77206;SDS011;66190;50.708;7.906;2023-07-20T03:27:09;12.90;;;5.10;;
77206;SDS011;66190;50.708;7.906;2023-07-20T03:29:34;10.83;;;4.30;;
77206;SDS011;66190;50.708;7.906;2023-07-20T03:32:00;10.07;;;4.70;;
77206;SDS011;66190;50.708;7.906;2023-07-20T03:34:25;12.83;;;5.07;;
77206;SDS011;66190;50.708;7.906;2023-07-20T03:36:51;11.47;;;5.20;;
77206;SDS011;66190;50.708;7.906;2023-07-20T03:39:16;10.70;;;4.87;;
77206;SDS011;66190;50.708;7.906;2023-07-20T03:41:41;11.10;;;5.10;;
77206;SDS011;66190;50.708;7.906;2023-07-20T03:44:08;11.73;;;5.22;;
77206;SDS011;66190;50.708;7.906;2023-07-20T03:46:33;12.13;;;5.33;;
77206;SDS011;66190;50.708;7.906;2023-07-20T03:48:59;12.37;;;5.33;;
77206;SDS011;66190;50.708;7.906;2023-07-20T03:51:25;9.70;;;4.68;;
77206;SDS011;66190;50.708;7.906;2023-07-20T03:53:51;10.20;;;4.70;;
77206;SDS011;66190;50.708;7.906;2023-07-20T03:56:16;12.67;;;5.10;;
77206;SDS011;66190;50.708;7.906;2023-07-20T03:58:41;10.00;;;5.17;;
77206;SDS011;66190;50.708;7.906;2023-07-20T04:01:07;11.93;;;4.70;;
77206;SDS011;66190;50.708;7.906;2023-07-20T04:03:33;11.73;;;5.15;;
77206;SDS011;66190;50.708;7.906;2023-07-20T04:05:58;10.77;;;4.87;;
77206;SDS011;66190;50.708;7.906;2023-07-20T04:08:23;10.83;;;4.77;;
77206;SDS011;66190;50.708;7.906;2023-07-20T04:10:52;12.82;;;5.10;;
77206;SDS011;66190;50.708;7.906;2023-07-20T04:13:17;11.27;;;4.97;;
77206;SDS011;66190;50.708;7.906;2023-07-20T04:15:43;9.45;;;4.43;;
77206;SDS011;66190;50.708;7.906;2023-07-20T04:18:09;10.10;;;4.20;;
77206;SDS011;66190;50.708;7.906;2023-07-20T04:20:34;11.37;;;4.37;;
77206;SDS011;66190;50.708;7.906;2023-07-20T04:22:59;9.33;;;4.10;;
77206;SDS011;66190;50.708;7.906;2023-07-20T04:25:25;11.07;;;4.17;;
77206;SDS011;66190;50.708;7.906;2023-07-20T04:27:50;11.50;;;4.67;;
77206;SDS011;66190;50.708;7.906;2023-07-20T04:30:17;12.55;;;4.80;;
77206;SDS011;66190;50.708;7.906;2023-07-20T04:32:45;11.85;;;4.60;;
77206;SDS011;66190;50.708;7.906;2023-07-20T04:35:16;11.55;;;4.65;;
77206;SDS011;66190;50.708;7.906;2023-07-20T04:37:45;10.93;;;5.17;;
77206;SDS011;66190;50.708;7.906;2023-07-20T04:40:12;12.10;;;6.55;;
77206;SDS011;66190;50.708;7.906;2023-07-20T04:42:40;11.60;;;5.78;;
77206;SDS011;66190;50.708;7.906;2023-07-20T04:45:06;13.60;;;6.30;;
77206;SDS011;66190;50.708;7.906;2023-07-20T04:47:31;10.13;;;5.53;;
77206;SDS011;66190;50.708;7.906;2023-07-20T04:49:57;19.00;;;6.67;;
77206;SDS011;66190;50.708;7.906;2023-07-20T04:52:22;10.47;;;4.87;;
77206;SDS011;66190;50.708;7.906;2023-07-20T04:54:48;11.20;;;5.07;;
77206;SDS011;66190;50.708;7.906;2023-07-20T04:57:13;11.35;;;5.03;;
77206;SDS011;66190;50.708;7.906;2023-07-20T04:59:39;11.57;;;4.50;;
77206;SDS011;66190;50.708;7.906;2023-07-20T05:02:04;12.37;;;4.50;;
77206;SDS011;66190;50.708;7.906;2023-07-20T05:04:30;13.90;;;4.17;;
77206;SDS011;66190;50.708;7.906;2023-07-20T05:06:55;10.60;;;4.05;;
77206;SDS011;66190;50.708;7.906;2023-07-20T05:09:20;12.57;;;4.77;;
77206;SDS011;66190;50.708;7.906;2023-07-20T05:11:46;10.67;;;4.27;;
77206;SDS011;66190;50.708;7.906;2023-07-20T05:14:13;10.88;;;4.70;;
77206;SDS011;66190;50.708;7.906;2023-07-20T05:16:38;11.47;;;3.87;;
77206;SDS011;66190;50.708;7.906;2023-07-20T05:19:04;8.83;;;3.73;;
77206;SDS011;66190;50.708;7.906;2023-07-20T05:21:29;9.40;;;4.10;;
77206;SDS011;66190;50.708;7.906;2023-07-20T05:23:54;9.83;;;3.87;;
77206;SDS011;66190;50.708;7.906;2023-07-20T05:26:20;9.10;;;3.53;;
77206;SDS011;66190;50.708;7.906;2023-07-20T05:28:45;11.97;;;4.20;;
77206;SDS011;66190;50.708;7.906;2023-07-20T05:31:11;11.13;;;4.43;;
77206;SDS011;66190;50.708;7.906;2023-07-20T05:33:36;11.10;;;3.83;;
77206;SDS011;66190;50.708;7.906;2023-07-20T05:36:01;10.82;;;3.88;;
77206;SDS011;66190;50.708;7.906;2023-07-20T05:38:27;9.13;;;3.97;;
77206;SDS011;66190;50.708;7.906;2023-07-20T05:40:52;11.23;;;4.10;;
77206;SDS011;66190;50.708;7.906;2023-07-20T05:43:17;10.73;;;4.97;;
77206;SDS011;66190;50.708;7.906;2023-07-20T05:45:43;11.00;;;4.03;;
77206;SDS011;66190;50.708;7.906;2023-07-20T05:48:10;12.18;;;4.60;;
77206;SDS011;66190;50.708;7.906;2023-07-20T05:50:45;9.68;;;4.07;;
77206;SDS011;66190;50.708;7.906;2023-07-20T05:53:11;11.32;;;4.40;;
77206;SDS011;66190;50.708;7.906;2023-07-20T05:55:36;8.87;;;3.97;;
77206;SDS011;66190;50.708;7.906;2023-07-20T05:58:01;11.40;;;4.40;;
77206;SDS011;66190;50.708;7.906;2023-07-20T06:00:29;13.10;;;4.90;;
77206;SDS011;66190;50.708;7.906;2023-07-20T06:02:54;12.50;;;5.47;;
77206;SDS011;66190;50.708;7.906;2023-07-20T06:05:20;14.87;;;5.57;;
77206;SDS011;66190;50.708;7.906;2023-07-20T06:07:46;13.90;;;5.90;;
77206;SDS011;66190;50.708;7.906;2023-07-20T06:10:12;14.87;;;6.77;;
77206;SDS011;66190;50.708;7.906;2023-07-20T06:12:37;14.67;;;7.00;;
77206;SDS011;66190;50.708;7.906;2023-07-20T06:15:03;16.63;;;7.70;;
77206;SDS011;66190;50.708;7.906;2023-07-20T06:17:30;16.58;;;7.68;;
77206;SDS011;66190;50.708;7.906;2023-07-20T06:19:55;16.60;;;7.60;;
77206;SDS011;66190;50.708;7.906;2023-07-20T06:22:20;15.43;;;8.20;;
77206;SDS011;66190;50.708;7.906;2023-07-20T06:24:46;15.97;;;7.37;;
77206;SDS011;66190;50.708;7.906;2023-07-20T06:27:11;15.13;;;7.37;;
77206;SDS011;66190;50.708;7.906;2023-07-20T06:29:37;17.47;;;8.07;;
77206;SDS011;66190;50.708;7.906;2023-07-20T06:32:03;17.75;;;7.88;;
77206;SDS011;66190;50.708;7.906;2023-07-20T06:34:28;15.83;;;7.93;;
77206;SDS011;66190;50.708;7.906;2023-07-20T06:36:54;16.27;;;8.48;;
77206;SDS011;66190;50.708;7.906;2023-07-20T06:39:20;21.43;;;8.77;;
77206;SDS011;66190;50.708;7.906;2023-07-20T06:41:47;15.85;;;8.40;;
77206;SDS011;66190;50.708;7.906;2023-07-20T06:44:12;18.00;;;9.30;;
77206;SDS011;66190;50.708;7.906;2023-07-20T06:46:38;19.50;;;9.23;;
77206;SDS011;66190;50.708;7.906;2023-07-20T06:49:05;21.00;;;9.67;;
77206;SDS011;66190;50.708;7.906;2023-07-20T06:51:32;19.23;;;9.47;;
77206;SDS011;66190;50.708;7.906;2023-07-20T06:53:58;22.08;;;10.55;;
77206;SDS011;66190;50.708;7.906;2023-07-20T06:56:23;18.07;;;8.90;;
77206;SDS011;66190;50.708;7.906;2023-07-20T06:58:49;18.43;;;9.53;;
77206;SDS011;66190;50.708;7.906;2023-07-20T07:01:14;19.47;;;9.13;;
77206;SDS011;66190;50.708;7.906;2023-07-20T07:03:40;17.93;;;8.70;;
77206;SDS011;66190;50.708;7.906;2023-07-20T07:06:05;18.98;;;8.57;;
77206;SDS011;66190;50.708;7.906;2023-07-20T07:08:31;16.03;;;8.30;;
77206;SDS011;66190;50.708;7.906;2023-07-20T07:10:56;15.43;;;7.70;;
77206;SDS011;66190;50.708;7.906;2023-07-20T07:13:21;16.47;;;7.60;;
77206;SDS011;66190;50.708;7.906;2023-07-20T07:15:47;14.10;;;7.43;;
77206;SDS011;66190;50.708;7.906;2023-07-20T07:18:12;15.77;;;7.37;;
77206;SDS011;66190;50.708;7.906;2023-07-20T07:20:37;15.10;;;7.37;;
77206;SDS011;66190;50.708;7.906;2023-07-20T07:23:03;14.00;;;7.20;;
77206;SDS011;66190;50.708;7.906;2023-07-20T07:25:28;15.23;;;8.00;;
77206;SDS011;66190;50.708;7.906;2023-07-20T07:27:55;12.05;;;6.18;;
77206;SDS011;66190;50.708;7.906;2023-07-20T07:30:21;15.13;;;6.43;;
77206;SDS011;66190;50.708;7.906;2023-07-20T07:32:46;15.60;;;7.40;;
77206;SDS011;66190;50.708;7.906;2023-07-20T07:35:12;12.63;;;7.07;;
77206;SDS011;66190;50.708;7.906;2023-07-20T07:37:37;15.10;;;7.03;;
77206;SDS011;66190;50.708;7.906;2023-07-20T07:40:03;12.93;;;7.30;;
77206;SDS011;66190;50.708;7.906;2023-07-20T07:42:29;11.80;;;6.85;;
77206;SDS011;66190;50.708;7.906;2023-07-20T07:44:55;13.90;;;6.97;;
77206;SDS011;66190;50.708;7.906;2023-07-20T07:47:20;10.40;;;6.30;;
77206;SDS011;66190;50.708;7.906;2023-07-20T07:49:45;10.43;;;6.50;;
77206;SDS011;66190;50.708;7.906;2023-07-20T07:52:11;14.83;;;6.90;;
77206;SDS011;66190;50.708;7.906;2023-07-20T07:54:36;12.93;;;6.63;;
77206;SDS011;66190;50.708;7.906;2023-07-20T07:57:01;12.00;;;6.70;;
77206;SDS011;66190;50.708;7.906;2023-07-20T07:59:27;11.33;;;5.47;;
77206;SDS011;66190;50.708;7.906;2023-07-20T08:01:52;11.07;;;6.43;;
77206;SDS011;66190;50.708;7.906;2023-07-20T08:04:18;10.77;;;5.70;;
77206;SDS011;66190;50.708;7.906;2023-07-20T08:06:44;12.43;;;6.87;;
77206;SDS011;66190;50.708;7.906;2023-07-20T08:09:09;10.95;;;6.30;;
77206;SDS011;66190;50.708;7.906;2023-07-20T08:11:35;10.20;;;5.57;;
77206;SDS011;66190;50.708;7.906;2023-07-20T08:14:00;10.40;;;6.03;;
77206;SDS011;66190;50.708;7.906;2023-07-20T08:16:26;13.27;;;6.68;;
77206;SDS011;66190;50.708;7.906;2023-07-20T08:18:52;9.73;;;5.17;;
77206;SDS011;66190;50.708;7.906;2023-07-20T08:21:17;12.13;;;6.40;;
77206;SDS011;66190;50.708;7.906;2023-07-20T08:23:42;10.05;;;5.13;;
77206;SDS011;66190;50.708;7.906;2023-07-20T08:26:08;9.87;;;4.80;;
77206;SDS011;66190;50.708;7.906;2023-07-20T08:28:33;10.77;;;4.70;;
77206;SDS011;66190;50.708;7.906;2023-07-20T08:30:59;9.10;;;5.07;;
77206;SDS011;66190;50.708;7.906;2023-07-20T08:33:24;10.77;;;5.05;;
77206;SDS011;66190;50.708;7.906;2023-07-20T08:35:50;13.30;;;5.77;;
77206;SDS011;66190;50.708;7.906;2023-07-20T08:38:15;10.37;;;5.40;;
77206;SDS011;66190;50.708;7.906;2023-07-20T08:40:41;9.07;;;4.57;;
77206;SDS011;66190;50.708;7.906;2023-07-20T08:43:10;9.90;;;5.35;;
77206;SDS011;66190;50.708;7.906;2023-07-20T08:45:35;11.00;;;5.22;;
77206;SDS011;66190;50.708;7.906;2023-07-20T08:48:04;7.97;;;4.07;;
77206;SDS011;66190;50.708;7.906;2023-07-20T08:50:30;10.68;;;4.78;;
77206;SDS011;66190;50.708;7.906;2023-07-20T08:52:56;10.73;;;5.33;;
77206;SDS011;66190;50.708;7.906;2023-07-20T08:55:23;9.10;;;4.72;;
77206;SDS011;66190;50.708;7.906;2023-07-20T08:57:50;9.30;;;4.82;;
77206;SDS011;66190;50.708;7.906;2023-07-20T09:00:19;7.85;;;3.97;;
77206;SDS011;66190;50.708;7.906;2023-07-20T09:02:48;9.47;;;4.30;;
77206;SDS011;66190;50.708;7.906;2023-07-20T09:05:21;8.57;;;4.65;;
77206;SDS011;66190;50.708;7.906;2023-07-20T09:07:48;8.20;;;4.72;;
77206;SDS011;66190;50.708;7.906;2023-07-20T09:10:14;8.90;;;5.20;;
77206;SDS011;66190;50.708;7.906;2023-07-20T09:12:40;11.25;;;5.70;;
77206;SDS011;66190;50.708;7.906;2023-07-20T09:15:07;10.25;;;4.82;;
77206;SDS011;66190;50.708;7.906;2023-07-20T09:17:34;13.60;;;5.33;;
77206;SDS011;66190;50.708;7.906;2023-07-20T09:20:08;7.80;;;4.10;;
77206;SDS011;66190;50.708;7.906;2023-07-20T09:22:36;8.83;;;3.50;;
77206;SDS011;66190;50.708;7.906;2023-07-20T09:25:06;6.97;;;3.55;;
77206;SDS011;66190;50.708;7.906;2023-07-20T09:27:36;7.88;;;3.55;;
77206;SDS011;66190;50.708;7.906;2023-07-20T09:30:03;7.53;;;4.80;;
77206;SDS011;66190;50.708;7.906;2023-07-20T09:32:30;8.48;;;4.55;;
77206;SDS011;66190;50.708;7.906;2023-07-20T09:34:55;8.63;;;3.97;;
77206;SDS011;66190;50.708;7.906;2023-07-20T09:37:21;8.00;;;4.07;;
77206;SDS011;66190;50.708;7.906;2023-07-20T09:39:47;8.15;;;4.63;;
77206;SDS011;66190;50.708;7.906;2023-07-20T09:42:14;10.93;;;4.55;;
77206;SDS011;66190;50.708;7.906;2023-07-20T09:44:43;8.83;;;3.73;;
77206;SDS011;66190;50.708;7.906;2023-07-20T09:47:08;7.95;;;3.80;;
77206;SDS011;66190;50.708;7.906;2023-07-20T09:49:40;9.93;;;5.40;;
77206;SDS011;66190;50.708;7.906;2023-07-20T09:52:06;8.02;;;4.60;;
77206;SDS011;66190;50.708;7.906;2023-07-20T09:54:39;8.63;;;4.80;;
77206;SDS011;66190;50.708;7.906;2023-07-20T09:57:08;8.38;;;4.60;;
77206;SDS011;66190;50.708;7.906;2023-07-20T09:59:34;10.32;;;5.28;;
77206;SDS011;66190;50.708;7.906;2023-07-20T10:02:00;9.65;;;5.00;;
77206;SDS011;66190;50.708;7.906;2023-07-20T10:04:29;9.10;;;4.40;;
77206;SDS011;66190;50.708;7.906;2023-07-20T10:06:55;9.15;;;3.78;;
77206;SDS011;66190;50.708;7.906;2023-07-20T10:09:24;7.47;;;3.38;;
77206;SDS011;66190;50.708;7.906;2023-07-20T10:11:51;6.82;;;2.92;;
77206;SDS011;66190;50.708;7.906;2023-07-20T10:14:19;7.70;;;3.38;;
77206;SDS011;66190;50.708;7.906;2023-07-20T10:16:54;7.43;;;2.93;;
77206;SDS011;66190;50.708;7.906;2023-07-20T10:19:24;6.95;;;2.97;;
77206;SDS011;66190;50.708;7.906;2023-07-20T10:22:07;6.82;;;2.65;;
77206;SDS011;66190;50.708;7.906;2023-07-20T10:24:38;6.30;;;2.78;;
77206;SDS011;66190;50.708;7.906;2023-07-20T10:27:04;7.03;;;2.78;;
77206;SDS011;66190;50.708;7.906;2023-07-20T10:29:30;4.97;;;2.37;;
77206;SDS011;66190;50.708;7.906;2023-07-20T10:31:56;6.63;;;2.67;;
77206;SDS011;66190;50.708;7.906;2023-07-20T10:34:22;6.88;;;2.70;;
77206;SDS011;66190;50.708;7.906;2023-07-20T10:36:49;7.13;;;2.63;;
77206;SDS011;66190;50.708;7.906;2023-07-20T10:39:23;6.70;;;2.90;;
77206;SDS011;66190;50.708;7.906;2023-07-20T10:41:50;6.57;;;2.90;;
77206;SDS011;66190;50.708;7.906;2023-07-20T10:44:28;7.10;;;2.97;;
77206;SDS011;66190;50.708;7.906;2023-07-20T10:46:59;7.10;;;2.88;;
77206;SDS011;66190;50.708;7.906;2023-07-20T10:49:25;7.53;;;3.30;;
77206;SDS011;66190;50.708;7.906;2023-07-20T10:51:58;7.93;;;3.33;;
77206;SDS011;66190;50.708;7.906;2023-07-20T10:56:50;6.23;;;2.97;;
77206;SDS011;66190;50.708;7.906;2023-07-20T11:01:52;6.57;;;3.10;;
77206;SDS011;66190;50.708;7.906;2023-07-20T11:04:21;7.05;;;2.97;;
77206;SDS011;66190;50.708;7.906;2023-07-20T11:07:02;6.47;;;2.78;;
77206;SDS011;66190;50.708;7.906;2023-07-20T11:09:33;6.63;;;3.20;;
77206;SDS011;66190;50.708;7.906;2023-07-20T11:12:09;6.78;;;2.67;;
77206;SDS011;66190;50.708;7.906;2023-07-20T11:14:35;6.13;;;2.40;;
77206;SDS011;66190;50.708;7.906;2023-07-20T11:17:12;6.65;;;2.38;;
77206;SDS011;66190;50.708;7.906;2023-07-20T11:19:40;6.03;;;2.80;;
77206;SDS011;66190;50.708;7.906;2023-07-20T11:22:06;5.93;;;2.77;;
77206;SDS011;66190;50.708;7.906;2023-07-20T11:24:41;6.60;;;2.47;;
77206;SDS011;66190;50.708;7.906;2023-07-20T11:27:07;6.53;;;3.13;;
77206;SDS011;66190;50.708;7.906;2023-07-20T11:29:32;5.93;;;3.23;;
77206;SDS011;66190;50.708;7.906;2023-07-20T11:31:58;7.77;;;4.00;;
77206;SDS011;66190;50.708;7.906;2023-07-20T11:34:26;5.80;;;3.33;;
77206;SDS011;66190;50.708;7.906;2023-07-20T11:36:53;6.10;;;2.67;;
77206;SDS011;66190;50.708;7.906;2023-07-20T11:39:19;4.88;;;2.22;;
77206;SDS011;66190;50.708;7.906;2023-07-20T11:41:47;5.83;;;2.80;;
77206;SDS011;66190;50.708;7.906;2023-07-20T11:44:17;7.00;;;3.33;;
77206;SDS011;66190;50.708;7.906;2023-07-20T11:46:59;6.63;;;3.20;;
77206;SDS011;66190;50.708;7.906;2023-07-20T11:49:29;5.97;;;3.05;;
77206;SDS011;66190;50.708;7.906;2023-07-20T11:51:55;6.78;;;3.38;;
77206;SDS011;66190;50.708;7.906;2023-07-20T11:54:21;8.47;;;4.00;;
77206;SDS011;66190;50.708;7.906;2023-07-20T11:56:47;6.18;;;3.13;;
77206;SDS011;66190;50.708;7.906;2023-07-20T11:59:12;6.63;;;2.90;;
77206;SDS011;66190;50.708;7.906;2023-07-20T12:01:37;6.53;;;3.37;;
77206;SDS011;66190;50.708;7.906;2023-07-20T12:04:03;5.63;;;2.77;;
77206;SDS011;66190;50.708;7.906;2023-07-20T12:06:29;6.75;;;3.00;;
77206;SDS011;66190;50.708;7.906;2023-07-20T12:08:55;6.17;;;3.10;;
77206;SDS011;66190;50.708;7.906;2023-07-20T12:13:57;5.65;;;3.05;;
77206;SDS011;66190;50.708;7.906;2023-07-20T12:16:26;7.57;;;2.35;;
77206;SDS011;66190;50.708;7.906;2023-07-20T12:18:58;5.90;;;3.10;;
77206;SDS011;66190;50.708;7.906;2023-07-20T12:21:27;5.60;;;2.47;;
77206;SDS011;66190;50.708;7.906;2023-07-20T12:23:55;5.32;;;2.50;;
77206;SDS011;66190;50.708;7.906;2023-07-20T12:26:22;5.43;;;2.55;;
77206;SDS011;66190;50.708;7.906;2023-07-20T12:28:49;5.35;;;2.38;;
77206;SDS011;66190;50.708;7.906;2023-07-20T12:31:14;6.25;;;2.42;;
77206;SDS011;66190;50.708;7.906;2023-07-20T12:33:40;6.47;;;2.70;;
77206;SDS011;66190;50.708;7.906;2023-07-20T12:36:06;6.10;;;3.10;;
77206;SDS011;66190;50.708;7.906;2023-07-20T12:38:31;5.73;;;2.33;;
77206;SDS011;66190;50.708;7.906;2023-07-20T12:40:57;6.30;;;2.53;;
77206;SDS011;66190;50.708;7.906;2023-07-20T12:43:23;6.00;;;2.20;;
77206;SDS011;66190;50.708;7.906;2023-07-20T12:45:49;5.35;;;2.15;;
77206;SDS011;66190;50.708;7.906;2023-07-20T12:48:15;5.17;;;1.80;;
77206;SDS011;66190;50.708;7.906;2023-07-20T12:50:40;5.57;;;2.00;;
77206;SDS011;66190;50.708;7.906;2023-07-20T12:53:06;5.23;;;1.73;;
77206;SDS011;66190;50.708;7.906;2023-07-20T12:55:31;5.53;;;2.30;;
77206;SDS011;66190;50.708;7.906;2023-07-20T12:57:57;6.90;;;2.42;;
77206;SDS011;66190;50.708;7.906;2023-07-20T13:00:22;5.33;;;2.47;;
77206;SDS011;66190;50.708;7.906;2023-07-20T13:02:48;5.60;;;2.70;;
77206;SDS011;66190;50.708;7.906;2023-07-20T13:05:14;6.63;;;2.30;;
77206;SDS011;66190;50.708;7.906;2023-07-20T13:07:40;6.22;;;2.58;;
77206;SDS011;66190;50.708;7.906;2023-07-20T13:10:06;5.77;;;2.50;;
77206;SDS011;66190;50.708;7.906;2023-07-20T13:12:33;7.03;;;2.15;;
77206;SDS011;66190;50.708;7.906;2023-07-20T13:15:01;6.85;;;2.70;;
77206;SDS011;66190;50.708;7.906;2023-07-20T13:17:30;5.10;;;2.30;;
77206;SDS011;66190;50.708;7.906;2023-07-20T13:20:05;8.05;;;2.75;;
77206;SDS011;66190;50.708;7.906;2023-07-20T13:22:33;6.00;;;2.13;;
77206;SDS011;66190;50.708;7.906;2023-07-20T13:24:59;7.13;;;2.92;;
77206;SDS011;66190;50.708;7.906;2023-07-20T13:27:25;5.00;;;2.40;;
77206;SDS011;66190;50.708;7.906;2023-07-20T13:29:51;5.43;;;2.40;;
77206;SDS011;66190;50.708;7.906;2023-07-20T13:32:17;5.63;;;2.90;;
77206;SDS011;66190;50.708;7.906;2023-07-20T13:34:45;6.00;;;2.50;;
77206;SDS011;66190;50.708;7.906;2023-07-20T13:37:11;5.93;;;2.73;;
77206;SDS011;66190;50.708;7.906;2023-07-20T13:39:37;5.28;;;2.00;;
77206;SDS011;66190;50.708;7.906;2023-07-20T13:42:03;5.20;;;2.17;;
77206;SDS011;66190;50.708;7.906;2023-07-20T13:44:30;5.10;;;2.30;;
77206;SDS011;66190;50.708;7.906;2023-07-20T13:46:59;5.90;;;2.70;;
77206;SDS011;66190;50.708;7.906;2023-07-20T13:49:24;5.85;;;2.25;;
77206;SDS011;66190;50.708;7.906;2023-07-20T13:51:50;7.03;;;2.50;;
77206;SDS011;66190;50.708;7.906;2023-07-20T13:54:15;5.63;;;2.00;;
77206;SDS011;66190;50.708;7.906;2023-07-20T13:56:41;5.23;;;2.10;;
77206;SDS011;66190;50.708;7.906;2023-07-20T13:59:06;4.70;;;1.60;;
77206;SDS011;66190;50.708;7.906;2023-07-20T14:01:32;6.30;;;2.17;;
77206;SDS011;66190;50.708;7.906;2023-07-20T14:04:01;4.80;;;2.05;;
77206;SDS011;66190;50.708;7.906;2023-07-20T14:06:30;5.00;;;1.83;;
77206;SDS011;66190;50.708;7.906;2023-07-20T14:08:57;4.50;;;1.65;;
77206;SDS011;66190;50.708;7.906;2023-07-20T14:11:23;5.40;;;1.97;;
77206;SDS011;66190;50.708;7.906;2023-07-20T14:13:49;6.75;;;1.50;;
77206;SDS011;66190;50.708;7.906;2023-07-20T14:16:15;5.05;;;1.30;;
77206;SDS011;66190;50.708;7.906;2023-07-20T14:18:41;4.40;;;1.50;;
77206;SDS011;66190;50.708;7.906;2023-07-20T14:21:06;4.17;;;1.20;;
77206;SDS011;66190;50.708;7.906;2023-07-20T14:23:32;5.78;;;1.90;;
77206;SDS011;66190;50.708;7.906;2023-07-20T14:25:57;5.47;;;1.87;;
77206;SDS011;66190;50.708;7.906;2023-07-20T14:28:23;5.35;;;1.67;;
77206;SDS011;66190;50.708;7.906;2023-07-20T14:30:49;5.30;;;1.40;;
77206;SDS011;66190;50.708;7.906;2023-07-20T14:33:14;4.70;;;1.50;;
77206;SDS011;66190;50.708;7.906;2023-07-20T14:35:39;4.83;;;1.20;;
77206;SDS011;66190;50.708;7.906;2023-07-20T14:38:05;4.77;;;1.30;;
77206;SDS011;66190;50.708;7.906;2023-07-20T14:40:30;5.38;;;1.30;;
77206;SDS011;66190;50.708;7.906;2023-07-20T14:42:56;4.40;;;1.27;;
77206;SDS011;66190;50.708;7.906;2023-07-20T14:45:21;6.27;;;1.43;;
77206;SDS011;66190;50.708;7.906;2023-07-20T14:47:47;5.45;;;1.70;;
77206;SDS011;66190;50.708;7.906;2023-07-20T14:50:18;5.60;;;1.77;;